sensor_id;sensor_type;location;lat;lon;timestamp;P1;durP1;ratioP1;P2;durP2;ratioP2
82950;SDS011;72737;53.332;6.514;2024-01-30T00:00:34;6.88;;;3.78;;
82950;SDS011;72737;53.332;6.514;2024-01-30T00:03:00;6.82;;;3.53;;
82950;SDS011;72737;53.332;6.514;2024-01-30T00:05:25;8.23;;;4.00;;
82950;SDS011;72737;53.332;6.514;2024-01-30T00:07:50;7.18;;;3.58;;
82950;SDS011;72737;53.332;6.514;2024-01-30T00:10:16;6.90;;;3.60;;
82950;SDS011;72737;53.332;6.514;2024-01-30T00:12:41;6.15;;;3.58;;
82950;SDS011;72737;53.332;6.514;2024-01-30T00:15:06;6.20;;;3.35;;
82950;SDS011;72737;53.332;6.514;2024-01-30T00:17:35;7.00;;;3.78;;
82950;SDS011;72737;53.332;6.514;2024-01-30T00:20:02;6.45;;;3.47;;
82950;SDS011;72737;53.332;6.514;2024-01-30T00:22:30;8.07;;;3.70;;
82950;SDS011;72737;53.332;6.514;2024-01-30T00:24:58;7.68;;;3.97;;
82950;SDS011;72737;53.332;6.514;2024-01-30T00:27:24;7.10;;;3.60;;
82950;SDS011;72737;53.332;6.514;2024-01-30T00:29:49;7.07;;;3.70;;
82950;SDS011;72737;53.332;6.514;2024-01-30T00:32:14;6.78;;;3.85;;
82950;SDS011;72737;53.332;6.514;2024-01-30T00:34:41;6.78;;;3.97;;
82950;SDS011;72737;53.332;6.514;2024-01-30T00:37:06;7.40;;;3.70;;
82950;SDS011;72737;53.332;6.514;2024-01-30T00:39:32;7.05;;;3.75;;
82950;SDS011;72737;53.332;6.514;2024-01-30T00:41:57;6.97;;;3.85;;
82950;SDS011;72737;53.332;6.514;2024-01-30T00:44:23;8.40;;;3.55;;
82950;SDS011;72737;53.332;6.514;2024-01-30T00:46:48;6.65;;;4.00;;
82950;SDS011;72737;53.332;6.514;2024-01-30T00:49:14;6.43;;;3.70;;
82950;SDS011;72737;53.332;6.514;2024-01-30T00:51:39;6.93;;;3.83;;
82950;SDS011;72737;53.332;6.514;2024-01-30T00:54:05;6.30;;;3.60;;
82950;SDS011;72737;53.332;6.514;2024-01-30T00:56:31;6.78;;;3.60;;
82950;SDS011;72737;53.332;6.514;2024-01-30T00:58:57;6.97;;;3.80;;
82950;SDS011;72737;53.332;6.514;2024-01-30T01:01:22;6.70;;;3.72;;
82950;SDS011;72737;53.332;6.514;2024-01-30T01:03:48;6.80;;;3.50;;
82950;SDS011;72737;53.332;6.514;2024-01-30T01:06:13;6.25;;;3.63;;
82950;SDS011;72737;53.332;6.514;2024-01-30T01:08:39;7.05;;;3.50;;
82950;SDS011;72737;53.332;6.514;2024-01-30T01:11:04;7.30;;;3.88;;
82950;SDS011;72737;53.332;6.514;2024-01-30T01:13:30;6.78;;;3.55;;
82950;SDS011;72737;53.332;6.514;2024-01-30T01:15:55;6.93;;;3.78;;
82950;SDS011;72737;53.332;6.514;2024-01-30T01:18:21;6.78;;;3.83;;
82950;SDS011;72737;53.332;6.514;2024-01-30T01:20:46;7.22;;;3.60;;
82950;SDS011;72737;53.332;6.514;2024-01-30T01:23:12;8.43;;;3.65;;
82950;SDS011;72737;53.332;6.514;2024-01-30T01:25:37;7.20;;;3.28;;
82950;SDS011;72737;53.332;6.514;2024-01-30T01:28:03;6.18;;;3.63;;
82950;SDS011;72737;53.332;6.514;2024-01-30T01:30:28;6.93;;;3.50;;
82950;SDS011;72737;53.332;6.514;2024-01-30T01:32:55;6.28;;;3.63;;
82950;SDS011;72737;53.332;6.514;2024-01-30T01:35:24;7.32;;;3.63;;
82950;SDS011;72737;53.332;6.514;2024-01-30T01:37:53;7.53;;;3.97;;
82950;SDS011;72737;53.332;6.514;2024-01-30T01:40:24;6.93;;;3.40;;
82950;SDS011;72737;53.332;6.514;2024-01-30T01:42:51;6.18;;;3.60;;
82950;SDS011;72737;53.332;6.514;2024-01-30T01:45:17;5.75;;;3.20;;
82950;SDS011;72737;53.332;6.514;2024-01-30T01:47:43;7.05;;;3.60;;
82950;SDS011;72737;53.332;6.514;2024-01-30T01:50:13;6.32;;;3.90;;
82950;SDS011;72737;53.332;6.514;2024-01-30T01:52:40;6.85;;;3.50;;
82950;SDS011;72737;53.332;6.514;2024-01-30T01:55:06;6.78;;;3.85;;
82950;SDS011;72737;53.332;6.514;2024-01-30T01:57:33;8.52;;;3.83;;
82950;SDS011;72737;53.332;6.514;2024-01-30T01:59:59;6.90;;;3.80;;
82950;SDS011;72737;53.332;6.514;2024-01-30T02:02:26;6.38;;;3.53;;
82950;SDS011;72737;53.332;6.514;2024-01-30T02:04:55;6.78;;;3.88;;
82950;SDS011;72737;53.332;6.514;2024-01-30T02:07:20;6.95;;;4.00;;
82950;SDS011;72737;53.332;6.514;2024-01-30T02:09:45;7.53;;;4.00;;
82950;SDS011;72737;53.332;6.514;2024-01-30T02:12:11;6.95;;;3.75;;
82950;SDS011;72737;53.332;6.514;2024-01-30T02:14:46;6.70;;;3.90;;
82950;SDS011;72737;53.332;6.514;2024-01-30T02:17:12;7.43;;;3.80;;
82950;SDS011;72737;53.332;6.514;2024-01-30T02:19:38;7.43;;;3.95;;
82950;SDS011;72737;53.332;6.514;2024-01-30T02:22:04;6.72;;;3.85;;
82950;SDS011;72737;53.332;6.514;2024-01-30T02:24:30;6.18;;;3.38;;
82950;SDS011;72737;53.332;6.514;2024-01-30T02:26:56;7.57;;;3.60;;
82950;SDS011;72737;53.332;6.514;2024-01-30T02:29:21;8.27;;;3.72;;
82950;SDS011;72737;53.332;6.514;2024-01-30T02:31:47;6.13;;;3.35;;
82950;SDS011;72737;53.332;6.514;2024-01-30T02:34:13;6.97;;;3.58;;
82950;SDS011;72737;53.332;6.514;2024-01-30T02:39:08;6.50;;;3.65;;
82950;SDS011;72737;53.332;6.514;2024-01-30T02:41:33;6.97;;;3.80;;
82950;SDS011;72737;53.332;6.514;2024-01-30T02:43:59;6.35;;;3.83;;
82950;SDS011;72737;53.332;6.514;2024-01-30T02:46:26;6.22;;;3.70;;
82950;SDS011;72737;53.332;6.514;2024-01-30T02:48:52;6.35;;;3.88;;
82950;SDS011;72737;53.332;6.514;2024-01-30T02:51:17;7.22;;;4.07;;
82950;SDS011;72737;53.332;6.514;2024-01-30T02:53:42;6.53;;;3.60;;
82950;SDS011;72737;53.332;6.514;2024-01-30T02:56:08;6.95;;;3.67;;
82950;SDS011;72737;53.332;6.514;2024-01-30T02:58:35;9.23;;;4.10;;
82950;SDS011;72737;53.332;6.514;2024-01-30T03:01:01;6.78;;;3.80;;
82950;SDS011;72737;53.332;6.514;2024-01-30T03:03:27;7.03;;;3.90;;
82950;SDS011;72737;53.332;6.514;2024-01-30T03:05:53;6.63;;;3.65;;
82950;SDS011;72737;53.332;6.514;2024-01-30T03:08:18;6.95;;;4.05;;
82950;SDS011;72737;53.332;6.514;2024-01-30T03:10:43;6.53;;;3.50;;
82950;SDS011;72737;53.332;6.514;2024-01-30T03:13:09;6.93;;;3.88;;
82950;SDS011;72737;53.332;6.514;2024-01-30T03:15:34;7.10;;;3.60;;
82950;SDS011;72737;53.332;6.514;2024-01-30T03:18:00;7.20;;;3.83;;
82950;SDS011;72737;53.332;6.514;2024-01-30T03:20:25;6.30;;;3.90;;
82950;SDS011;72737;53.332;6.514;2024-01-30T03:22:51;6.82;;;3.78;;
82950;SDS011;72737;53.332;6.514;2024-01-30T03:25:16;7.45;;;3.63;;
82950;SDS011;72737;53.332;6.514;2024-01-30T03:27:41;7.13;;;3.95;;
82950;SDS011;72737;53.332;6.514;2024-01-30T03:30:07;6.90;;;3.92;;
82950;SDS011;72737;53.332;6.514;2024-01-30T03:32:33;6.72;;;3.47;;
82950;SDS011;72737;53.332;6.514;2024-01-30T03:34:58;6.53;;;3.28;;
82950;SDS011;72737;53.332;6.514;2024-01-30T03:37:24;6.80;;;3.53;;
82950;SDS011;72737;53.332;6.514;2024-01-30T03:39:49;7.05;;;3.90;;
82950;SDS011;72737;53.332;6.514;2024-01-30T03:42:15;7.50;;;3.53;;
82950;SDS011;72737;53.332;6.514;2024-01-30T03:44:40;7.18;;;3.90;;
82950;SDS011;72737;53.332;6.514;2024-01-30T03:47:05;7.05;;;4.03;;
82950;SDS011;72737;53.332;6.514;2024-01-30T03:49:31;7.45;;;3.40;;
82950;SDS011;72737;53.332;6.514;2024-01-30T03:51:56;6.07;;;3.70;;
82950;SDS011;72737;53.332;6.514;2024-01-30T03:54:21;6.90;;;3.65;;
82950;SDS011;72737;53.332;6.514;2024-01-30T03:56:47;6.90;;;3.70;;
82950;SDS011;72737;53.332;6.514;2024-01-30T03:59:12;6.88;;;3.60;;
82950;SDS011;72737;53.332;6.514;2024-01-30T04:01:37;7.00;;;3.90;;
82950;SDS011;72737;53.332;6.514;2024-01-30T04:04:03;6.93;;;3.67;;
82950;SDS011;72737;53.332;6.514;2024-01-30T04:06:28;6.40;;;3.90;;
82950;SDS011;72737;53.332;6.514;2024-01-30T04:08:54;6.72;;;3.60;;
82950;SDS011;72737;53.332;6.514;2024-01-30T04:11:19;7.10;;;3.65;;
82950;SDS011;72737;53.332;6.514;2024-01-30T04:13:45;6.68;;;4.00;;
82950;SDS011;72737;53.332;6.514;2024-01-30T04:16:22;7.00;;;4.00;;
82950;SDS011;72737;53.332;6.514;2024-01-30T04:18:48;5.85;;;3.58;;
82950;SDS011;72737;53.332;6.514;2024-01-30T04:21:13;7.68;;;3.90;;
82950;SDS011;72737;53.332;6.514;2024-01-30T04:23:40;6.90;;;3.85;;
82950;SDS011;72737;53.332;6.514;2024-01-30T04:26:05;6.95;;;3.65;;
82950;SDS011;72737;53.332;6.514;2024-01-30T04:28:31;6.35;;;3.55;;
82950;SDS011;72737;53.332;6.514;2024-01-30T04:30:56;6.55;;;3.90;;
82950;SDS011;72737;53.332;6.514;2024-01-30T04:33:22;6.90;;;3.85;;
82950;SDS011;72737;53.332;6.514;2024-01-30T04:35:47;6.75;;;3.88;;
82950;SDS011;72737;53.332;6.514;2024-01-30T04:38:13;6.82;;;3.75;;
82950;SDS011;72737;53.332;6.514;2024-01-30T04:40:39;6.95;;;3.80;;
82950;SDS011;72737;53.332;6.514;2024-01-30T04:43:05;6.65;;;4.00;;
82950;SDS011;72737;53.332;6.514;2024-01-30T04:45:30;6.85;;;3.83;;
82950;SDS011;72737;53.332;6.514;2024-01-30T04:47:56;6.78;;;3.67;;
82950;SDS011;72737;53.332;6.514;2024-01-30T04:50:21;6.38;;;3.72;;
82950;SDS011;72737;53.332;6.514;2024-01-30T04:52:48;7.53;;;3.97;;
82950;SDS011;72737;53.332;6.514;2024-01-30T04:55:13;6.90;;;3.50;;
82950;SDS011;72737;53.332;6.514;2024-01-30T04:57:39;6.03;;;3.45;;
82950;SDS011;72737;53.332;6.514;2024-01-30T05:00:04;7.50;;;3.47;;
82950;SDS011;72737;53.332;6.514;2024-01-30T05:02:30;7.20;;;3.80;;
82950;SDS011;72737;53.332;6.514;2024-01-30T05:04:57;7.28;;;3.63;;
82950;SDS011;72737;53.332;6.514;2024-01-30T05:07:24;6.22;;;3.45;;
82950;SDS011;72737;53.332;6.514;2024-01-30T05:09:49;6.97;;;3.65;;
82950;SDS011;72737;53.332;6.514;2024-01-30T05:12:15;6.90;;;3.83;;
82950;SDS011;72737;53.332;6.514;2024-01-30T05:14:40;7.38;;;3.42;;
82950;SDS011;72737;53.332;6.514;2024-01-30T05:17:05;6.45;;;3.70;;
82950;SDS011;72737;53.332;6.514;2024-01-30T05:19:31;7.40;;;3.70;;
82950;SDS011;72737;53.332;6.514;2024-01-30T05:21:57;6.50;;;3.50;;
82950;SDS011;72737;53.332;6.514;2024-01-30T05:24:22;6.78;;;3.70;;
82950;SDS011;72737;53.332;6.514;2024-01-30T05:26:47;6.57;;;3.65;;
82950;SDS011;72737;53.332;6.514;2024-01-30T05:29:13;6.40;;;3.40;;
82950;SDS011;72737;53.332;6.514;2024-01-30T05:31:38;7.13;;;3.95;;
82950;SDS011;72737;53.332;6.514;2024-01-30T05:34:04;5.75;;;3.58;;
82950;SDS011;72737;53.332;6.514;2024-01-30T05:36:29;5.90;;;3.63;;
82950;SDS011;72737;53.332;6.514;2024-01-30T05:38:55;6.68;;;3.97;;
82950;SDS011;72737;53.332;6.514;2024-01-30T05:41:21;6.40;;;3.55;;
82950;SDS011;72737;53.332;6.514;2024-01-30T05:43:46;7.07;;;3.40;;
82950;SDS011;72737;53.332;6.514;2024-01-30T05:46:12;8.00;;;3.33;;
82950;SDS011;72737;53.332;6.514;2024-01-30T05:48:37;7.65;;;4.05;;
82950;SDS011;72737;53.332;6.514;2024-01-30T05:51:02;8.07;;;3.85;;
82950;SDS011;72737;53.332;6.514;2024-01-30T05:53:30;6.00;;;3.58;;
82950;SDS011;72737;53.332;6.514;2024-01-30T05:55:55;6.43;;;3.53;;
82950;SDS011;72737;53.332;6.514;2024-01-30T05:58:20;6.50;;;3.83;;
82950;SDS011;72737;53.332;6.514;2024-01-30T06:00:46;7.57;;;3.38;;
82950;SDS011;72737;53.332;6.514;2024-01-30T06:03:12;6.78;;;3.70;;
82950;SDS011;72737;53.332;6.514;2024-01-30T06:05:37;7.18;;;3.10;;
82950;SDS011;72737;53.332;6.514;2024-01-30T06:08:02;7.65;;;3.53;;
82950;SDS011;72737;53.332;6.514;2024-01-30T06:10:29;7.90;;;3.83;;
82950;SDS011;72737;53.332;6.514;2024-01-30T06:12:54;7.10;;;3.65;;
82950;SDS011;72737;53.332;6.514;2024-01-30T06:15:21;5.88;;;3.50;;
82950;SDS011;72737;53.332;6.514;2024-01-30T06:17:46;6.70;;;3.78;;
82950;SDS011;72737;53.332;6.514;2024-01-30T06:20:11;16.42;;;3.85;;
82950;SDS011;72737;53.332;6.514;2024-01-30T06:22:37;6.63;;;3.67;;
82950;SDS011;72737;53.332;6.514;2024-01-30T06:25:03;6.97;;;3.70;;
82950;SDS011;72737;53.332;6.514;2024-01-30T06:27:28;6.75;;;3.85;;
82950;SDS011;72737;53.332;6.514;2024-01-30T06:29:54;7.35;;;3.58;;
82950;SDS011;72737;53.332;6.514;2024-01-30T06:32:20;6.88;;;3.78;;
82950;SDS011;72737;53.332;6.514;2024-01-30T06:34:45;5.88;;;3.40;;
82950;SDS011;72737;53.332;6.514;2024-01-30T06:37:10;8.35;;;3.70;;
82950;SDS011;72737;53.332;6.514;2024-01-30T06:39:36;6.82;;;3.83;;
82950;SDS011;72737;53.332;6.514;2024-01-30T06:42:01;6.40;;;3.50;;
82950;SDS011;72737;53.332;6.514;2024-01-30T06:44:28;8.27;;;3.60;;
82950;SDS011;72737;53.332;6.514;2024-01-30T06:46:53;10.18;;;4.22;;
82950;SDS011;72737;53.332;6.514;2024-01-30T06:49:18;9.70;;;3.97;;
82950;SDS011;72737;53.332;6.514;2024-01-30T06:51:44;10.48;;;4.13;;
82950;SDS011;72737;53.332;6.514;2024-01-30T06:54:09;8.23;;;3.58;;
82950;SDS011;72737;53.332;6.514;2024-01-30T06:56:35;9.63;;;3.92;;
82950;SDS011;72737;53.332;6.514;2024-01-30T06:59:00;7.53;;;3.78;;
82950;SDS011;72737;53.332;6.514;2024-01-30T07:01:29;11.73;;;3.65;;
82950;SDS011;72737;53.332;6.514;2024-01-30T07:03:55;9.98;;;4.00;;
82950;SDS011;72737;53.332;6.514;2024-01-30T07:06:21;7.32;;;3.50;;
82950;SDS011;72737;53.332;6.514;2024-01-30T07:08:47;12.27;;;3.80;;
82950;SDS011;72737;53.332;6.514;2024-01-30T07:11:18;11.25;;;4.05;;
82950;SDS011;72737;53.332;6.514;2024-01-30T07:13:44;9.45;;;3.92;;
82950;SDS011;72737;53.332;6.514;2024-01-30T07:16:09;7.80;;;3.50;;
82950;SDS011;72737;53.332;6.514;2024-01-30T07:18:34;10.27;;;4.68;;
82950;SDS011;72737;53.332;6.514;2024-01-30T07:21:00;6.88;;;3.72;;
82950;SDS011;72737;53.332;6.514;2024-01-30T07:23:25;10.45;;;3.88;;
82950;SDS011;72737;53.332;6.514;2024-01-30T07:25:51;11.57;;;4.25;;
82950;SDS011;72737;53.332;6.514;2024-01-30T07:28:16;9.60;;;4.85;;
82950;SDS011;72737;53.332;6.514;2024-01-30T07:30:42;9.93;;;4.45;;
82950;SDS011;72737;53.332;6.514;2024-01-30T07:33:08;12.15;;;4.80;;
82950;SDS011;72737;53.332;6.514;2024-01-30T07:35:34;10.68;;;4.53;;
82950;SDS011;72737;53.332;6.514;2024-01-30T07:38:00;10.93;;;4.55;;
82950;SDS011;72737;53.332;6.514;2024-01-30T07:40:25;15.32;;;5.00;;
82950;SDS011;72737;53.332;6.514;2024-01-30T07:42:53;12.32;;;5.18;;
82950;SDS011;72737;53.332;6.514;2024-01-30T07:45:18;14.30;;;5.68;;
82950;SDS011;72737;53.332;6.514;2024-01-30T07:47:47;18.55;;;7.15;;
82950;SDS011;72737;53.332;6.514;2024-01-30T07:50:16;21.25;;;8.13;;
82950;SDS011;72737;53.332;6.514;2024-01-30T07:52:42;19.90;;;7.78;;
82950;SDS011;72737;53.332;6.514;2024-01-30T07:55:08;17.98;;;7.57;;
82950;SDS011;72737;53.332;6.514;2024-01-30T07:57:34;18.55;;;7.22;;
82950;SDS011;72737;53.332;6.514;2024-01-30T07:59:59;18.00;;;7.60;;
82950;SDS011;72737;53.332;6.514;2024-01-30T08:02:25;20.73;;;7.82;;
82950;SDS011;72737;53.332;6.514;2024-01-30T08:04:50;19.05;;;8.30;;
82950;SDS011;72737;53.332;6.514;2024-01-30T08:07:16;16.30;;;7.57;;
82950;SDS011;72737;53.332;6.514;2024-01-30T08:09:42;21.75;;;7.70;;
82950;SDS011;72737;53.332;6.514;2024-01-30T08:12:08;18.40;;;7.18;;
82950;SDS011;72737;53.332;6.514;2024-01-30T08:14:34;18.25;;;7.65;;
82950;SDS011;72737;53.332;6.514;2024-01-30T08:16:59;16.55;;;8.00;;
82950;SDS011;72737;53.332;6.514;2024-01-30T08:19:24;17.48;;;7.53;;
82950;SDS011;72737;53.332;6.514;2024-01-30T08:21:50;15.45;;;7.07;;
82950;SDS011;72737;53.332;6.514;2024-01-30T08:24:15;15.48;;;7.00;;
82950;SDS011;72737;53.332;6.514;2024-01-30T08:26:41;17.92;;;7.90;;
82950;SDS011;72737;53.332;6.514;2024-01-30T08:29:06;16.90;;;7.70;;
82950;SDS011;72737;53.332;6.514;2024-01-30T08:31:32;15.85;;;6.95;;
82950;SDS011;72737;53.332;6.514;2024-01-30T08:33:57;14.70;;;7.63;;
82950;SDS011;72737;53.332;6.514;2024-01-30T08:36:22;16.20;;;7.43;;
82950;SDS011;72737;53.332;6.514;2024-01-30T08:38:48;11.82;;;7.60;;
82950;SDS011;72737;53.332;6.514;2024-01-30T08:41:13;14.15;;;6.72;;
82950;SDS011;72737;53.332;6.514;2024-01-30T08:43:38;15.10;;;7.07;;
82950;SDS011;72737;53.332;6.514;2024-01-30T08:46:04;15.68;;;7.13;;
82950;SDS011;72737;53.332;6.514;2024-01-30T08:48:29;14.68;;;6.82;;
82950;SDS011;72737;53.332;6.514;2024-01-30T08:50:55;14.15;;;7.03;;
82950;SDS011;72737;53.332;6.514;2024-01-30T08:53:20;14.57;;;7.65;;
82950;SDS011;72737;53.332;6.514;2024-01-30T08:55:46;12.75;;;7.20;;
82950;SDS011;72737;53.332;6.514;2024-01-30T08:58:11;12.85;;;6.82;;
82950;SDS011;72737;53.332;6.514;2024-01-30T09:00:37;13.05;;;7.32;;
82950;SDS011;72737;53.332;6.514;2024-01-30T09:03:03;12.60;;;7.03;;
82950;SDS011;72737;53.332;6.514;2024-01-30T09:05:29;12.10;;;6.70;;
82950;SDS011;72737;53.332;6.514;2024-01-30T09:07:54;11.68;;;6.47;;
82950;SDS011;72737;53.332;6.514;2024-01-30T09:10:19;11.65;;;6.38;;
82950;SDS011;72737;53.332;6.514;2024-01-30T09:12:45;11.70;;;6.45;;
82950;SDS011;72737;53.332;6.514;2024-01-30T09:15:11;13.32;;;6.43;;
82950;SDS011;72737;53.332;6.514;2024-01-30T09:17:36;11.88;;;6.93;;
82950;SDS011;72737;53.332;6.514;2024-01-30T09:20:02;12.38;;;6.68;;
82950;SDS011;72737;53.332;6.514;2024-01-30T09:22:27;11.77;;;6.32;;
82950;SDS011;72737;53.332;6.514;2024-01-30T09:24:53;12.35;;;6.80;;
82950;SDS011;72737;53.332;6.514;2024-01-30T09:27:18;11.82;;;6.70;;
82950;SDS011;72737;53.332;6.514;2024-01-30T09:29:44;12.32;;;6.13;;
82950;SDS011;72737;53.332;6.514;2024-01-30T09:32:09;11.00;;;6.85;;
82950;SDS011;72737;53.332;6.514;2024-01-30T09:34:34;10.40;;;6.32;;
82950;SDS011;72737;53.332;6.514;2024-01-30T09:37:00;11.82;;;6.72;;
82950;SDS011;72737;53.332;6.514;2024-01-30T09:39:25;11.02;;;6.28;;
82950;SDS011;72737;53.332;6.514;2024-01-30T09:42:02;10.98;;;6.93;;
82950;SDS011;72737;53.332;6.514;2024-01-30T09:44:36;12.10;;;6.38;;
82950;SDS011;72737;53.332;6.514;2024-01-30T09:47:03;9.60;;;5.43;;
82950;SDS011;72737;53.332;6.514;2024-01-30T09:49:33;12.48;;;6.18;;
82950;SDS011;72737;53.332;6.514;2024-01-30T09:52:02;10.77;;;5.55;;
82950;SDS011;72737;53.332;6.514;2024-01-30T09:54:31;11.38;;;6.50;;
82950;SDS011;72737;53.332;6.514;2024-01-30T09:56:57;10.35;;;6.60;;
82950;SDS011;72737;53.332;6.514;2024-01-30T09:59:23;10.40;;;6.38;;
82950;SDS011;72737;53.332;6.514;2024-01-30T10:01:50;12.23;;;6.35;;
82950;SDS011;72737;53.332;6.514;2024-01-30T10:04:16;10.82;;;5.93;;
82950;SDS011;72737;53.332;6.514;2024-01-30T10:06:42;12.13;;;6.28;;
82950;SDS011;72737;53.332;6.514;2024-01-30T10:09:07;12.88;;;6.65;;
82950;SDS011;72737;53.332;6.514;2024-01-30T10:11:34;10.93;;;6.10;;
82950;SDS011;72737;53.332;6.514;2024-01-30T10:14:00;12.45;;;6.18;;
82950;SDS011;72737;53.332;6.514;2024-01-30T10:16:25;10.40;;;6.32;;
82950;SDS011;72737;53.332;6.514;2024-01-30T10:18:51;12.05;;;6.38;;
82950;SDS011;72737;53.332;6.514;2024-01-30T10:21:16;11.98;;;6.57;;
82950;SDS011;72737;53.332;6.514;2024-01-30T10:23:43;10.85;;;6.60;;
82950;SDS011;72737;53.332;6.514;2024-01-30T10:26:09;10.63;;;6.13;;
82950;SDS011;72737;53.332;6.514;2024-01-30T10:28:34;11.15;;;6.28;;
82950;SDS011;72737;53.332;6.514;2024-01-30T10:31:00;11.23;;;6.53;;
82950;SDS011;72737;53.332;6.514;2024-01-30T10:33:29;12.98;;;6.45;;
82950;SDS011;72737;53.332;6.514;2024-01-30T10:36:00;10.85;;;6.72;;
82950;SDS011;72737;53.332;6.514;2024-01-30T10:38:28;10.60;;;6.00;;
82950;SDS011;72737;53.332;6.514;2024-01-30T10:40:59;10.40;;;5.90;;
82950;SDS011;72737;53.332;6.514;2024-01-30T10:43:32;10.45;;;5.78;;
82950;SDS011;72737;53.332;6.514;2024-01-30T10:46:09;12.27;;;6.40;;
82950;SDS011;72737;53.332;6.514;2024-01-30T10:48:39;11.65;;;6.20;;
82950;SDS011;72737;53.332;6.514;2024-01-30T10:51:08;10.55;;;6.40;;
82950;SDS011;72737;53.332;6.514;2024-01-30T10:53:34;12.75;;;6.47;;
82950;SDS011;72737;53.332;6.514;2024-01-30T10:56:01;14.73;;;7.32;;
82950;SDS011;72737;53.332;6.514;2024-01-30T10:58:28;11.57;;;7.10;;
82950;SDS011;72737;53.332;6.514;2024-01-30T11:00:54;12.88;;;7.70;;
82950;SDS011;72737;53.332;6.514;2024-01-30T11:03:20;12.18;;;6.68;;
82950;SDS011;72737;53.332;6.514;2024-01-30T11:05:49;10.18;;;6.50;;
82950;SDS011;72737;53.332;6.514;2024-01-30T11:08:22;10.50;;;6.28;;
82950;SDS011;72737;53.332;6.514;2024-01-30T11:10:49;12.60;;;6.47;;
82950;SDS011;72737;53.332;6.514;2024-01-30T11:13:15;11.90;;;6.03;;
82950;SDS011;72737;53.332;6.514;2024-01-30T11:15:41;10.98;;;6.05;;
82950;SDS011;72737;53.332;6.514;2024-01-30T11:18:06;13.23;;;6.13;;
82950;SDS011;72737;53.332;6.514;2024-01-30T11:20:31;10.07;;;5.75;;
82950;SDS011;72737;53.332;6.514;2024-01-30T11:22:57;10.20;;;5.20;;
82950;SDS011;72737;53.332;6.514;2024-01-30T11:25:24;9.55;;;5.07;;
82950;SDS011;72737;53.332;6.514;2024-01-30T11:27:53;12.48;;;5.50;;
82950;SDS011;72737;53.332;6.514;2024-01-30T11:30:23;10.57;;;5.75;;
82950;SDS011;72737;53.332;6.514;2024-01-30T11:35:32;10.27;;;4.93;;
82950;SDS011;72737;53.332;6.514;2024-01-30T11:37:58;9.75;;;4.72;;
82950;SDS011;72737;53.332;6.514;2024-01-30T11:40:24;9.50;;;5.03;;
82950;SDS011;72737;53.332;6.514;2024-01-30T11:42:52;9.27;;;4.88;;
82950;SDS011;72737;53.332;6.514;2024-01-30T11:45:19;9.35;;;4.63;;
82950;SDS011;72737;53.332;6.514;2024-01-30T11:47:45;10.55;;;4.43;;
82950;SDS011;72737;53.332;6.514;2024-01-30T11:50:10;10.18;;;4.30;;
82950;SDS011;72737;53.332;6.514;2024-01-30T11:52:36;9.18;;;4.38;;
82950;SDS011;72737;53.332;6.514;2024-01-30T11:55:01;8.85;;;4.25;;
82950;SDS011;72737;53.332;6.514;2024-01-30T11:57:28;9.90;;;4.30;;
82950;SDS011;72737;53.332;6.514;2024-01-30T11:59:53;7.47;;;3.95;;
82950;SDS011;72737;53.332;6.514;2024-01-30T12:02:19;9.93;;;4.18;;
82950;SDS011;72737;53.332;6.514;2024-01-30T12:04:44;8.48;;;3.88;;
82950;SDS011;72737;53.332;6.514;2024-01-30T12:07:10;6.82;;;3.53;;
82950;SDS011;72737;53.332;6.514;2024-01-30T12:09:36;9.63;;;4.07;;
82950;SDS011;72737;53.332;6.514;2024-01-30T12:12:02;8.82;;;3.80;;
82950;SDS011;72737;53.332;6.514;2024-01-30T12:14:27;8.63;;;3.53;;
82950;SDS011;72737;53.332;6.514;2024-01-30T12:16:53;8.13;;;3.30;;
82950;SDS011;72737;53.332;6.514;2024-01-30T12:19:25;7.53;;;3.33;;
82950;SDS011;72737;53.332;6.514;2024-01-30T12:21:54;5.53;;;2.75;;
82950;SDS011;72737;53.332;6.514;2024-01-30T12:24:26;8.15;;;3.17;;
82950;SDS011;72737;53.332;6.514;2024-01-30T12:26:52;8.10;;;3.00;;
82950;SDS011;72737;53.332;6.514;2024-01-30T12:29:21;6.80;;;3.05;;
82950;SDS011;72737;53.332;6.514;2024-01-30T12:31:47;6.57;;;2.72;;
82950;SDS011;72737;53.332;6.514;2024-01-30T12:34:15;7.00;;;2.60;;
82950;SDS011;72737;53.332;6.514;2024-01-30T12:36:50;6.53;;;2.38;;
82950;SDS011;72737;53.332;6.514;2024-01-30T12:39:16;7.30;;;2.30;;
82950;SDS011;72737;53.332;6.514;2024-01-30T12:41:41;6.45;;;2.60;;
82950;SDS011;72737;53.332;6.514;2024-01-30T12:44:07;6.43;;;2.50;;
82950;SDS011;72737;53.332;6.514;2024-01-30T12:46:36;6.75;;;2.55;;
82950;SDS011;72737;53.332;6.514;2024-01-30T12:49:01;5.55;;;2.35;;
82950;SDS011;72737;53.332;6.514;2024-01-30T12:51:27;6.18;;;2.30;;
82950;SDS011;72737;53.332;6.514;2024-01-30T12:53:52;6.88;;;2.38;;
82950;SDS011;72737;53.332;6.514;2024-01-30T12:56:17;5.75;;;1.90;;
82950;SDS011;72737;53.332;6.514;2024-01-30T12:58:43;7.00;;;2.58;;
82950;SDS011;72737;53.332;6.514;2024-01-30T13:01:09;5.18;;;2.05;;
82950;SDS011;72737;53.332;6.514;2024-01-30T13:03:34;5.25;;;2.00;;
82950;SDS011;72737;53.332;6.514;2024-01-30T13:06:00;6.80;;;2.10;;
82950;SDS011;72737;53.332;6.514;2024-01-30T13:08:26;6.35;;;2.20;;
82950;SDS011;72737;53.332;6.514;2024-01-30T13:10:51;5.63;;;2.13;;
82950;SDS011;72737;53.332;6.514;2024-01-30T13:13:16;5.13;;;1.88;;
82950;SDS011;72737;53.332;6.514;2024-01-30T13:15:42;4.85;;;2.05;;
82950;SDS011;72737;53.332;6.514;2024-01-30T13:18:07;5.68;;;1.92;;
82950;SDS011;72737;53.332;6.514;2024-01-30T13:20:33;5.65;;;1.83;;
82950;SDS011;72737;53.332;6.514;2024-01-30T13:22:58;7.22;;;1.83;;
82950;SDS011;72737;53.332;6.514;2024-01-30T13:25:24;6.30;;;1.80;;
82950;SDS011;72737;53.332;6.514;2024-01-30T13:27:49;5.95;;;2.10;;
82950;SDS011;72737;53.332;6.514;2024-01-30T13:30:15;6.65;;;2.00;;
82950;SDS011;72737;53.332;6.514;2024-01-30T13:32:40;5.18;;;2.03;;
82950;SDS011;72737;53.332;6.514;2024-01-30T13:35:09;5.28;;;1.92;;
82950;SDS011;72737;53.332;6.514;2024-01-30T13:37:35;4.38;;;1.52;;
82950;SDS011;72737;53.332;6.514;2024-01-30T13:40:00;6.28;;;1.85;;
82950;SDS011;72737;53.332;6.514;2024-01-30T13:42:26;5.75;;;1.70;;
82950;SDS011;72737;53.332;6.514;2024-01-30T13:44:52;6.30;;;1.52;;
82950;SDS011;72737;53.332;6.514;2024-01-30T13:47:18;4.07;;;1.45;;
82950;SDS011;72737;53.332;6.514;2024-01-30T13:49:46;5.50;;;1.90;;
82950;SDS011;72737;53.332;6.514;2024-01-30T13:52:12;3.95;;;1.48;;
82950;SDS011;72737;53.332;6.514;2024-01-30T13:54:38;5.00;;;1.70;;
82950;SDS011;72737;53.332;6.514;2024-01-30T13:57:03;4.47;;;1.40;;
82950;SDS011;72737;53.332;6.514;2024-01-30T13:59:29;4.32;;;1.65;;
82950;SDS011;72737;53.332;6.514;2024-01-30T14:01:55;5.00;;;1.70;;
82950;SDS011;72737;53.332;6.514;2024-01-30T14:04:20;4.38;;;1.50;;
82950;SDS011;72737;53.332;6.514;2024-01-30T14:06:46;4.13;;;1.55;;
82950;SDS011;72737;53.332;6.514;2024-01-30T14:09:11;3.88;;;1.50;;
82950;SDS011;72737;53.332;6.514;2024-01-30T14:11:36;4.90;;;1.40;;
82950;SDS011;72737;53.332;6.514;2024-01-30T14:14:02;5.15;;;1.33;;
82950;SDS011;72737;53.332;6.514;2024-01-30T14:16:27;5.43;;;1.50;;
82950;SDS011;72737;53.332;6.514;2024-01-30T14:18:53;4.35;;;1.50;;
82950;SDS011;72737;53.332;6.514;2024-01-30T14:21:19;4.97;;;1.60;;
82950;SDS011;72737;53.332;6.514;2024-01-30T14:23:44;3.85;;;1.70;;
82950;SDS011;72737;53.332;6.514;2024-01-30T14:26:10;3.35;;;1.33;;
82950;SDS011;72737;53.332;6.514;2024-01-30T14:28:35;5.72;;;1.30;;
82950;SDS011;72737;53.332;6.514;2024-01-30T14:31:01;4.05;;;1.48;;
82950;SDS011;72737;53.332;6.514;2024-01-30T14:33:26;3.28;;;1.38;;
82950;SDS011;72737;53.332;6.514;2024-01-30T14:35:52;3.50;;;1.30;;
82950;SDS011;72737;53.332;6.514;2024-01-30T14:38:17;5.47;;;1.60;;
82950;SDS011;72737;53.332;6.514;2024-01-30T14:40:43;4.43;;;1.50;;